Flight Track Log - Related Links

Times and Time Zones

All times are in EDT time to prevent confusion due to time zone crossing. See the UAL1177 flight status page for this flight to view local times or setup timezone preferences in your user account.

Time Position Orientation Groundspeed Altitude Reporting Facility
EDT Latitude Longitude Course Direction KTS MPH feet Rate Location/Type
Fri 05:36:17 PM 37.6333 -122.3500 67° East 165 190 900  Level Northern Cal TRACON
Fri 05:37:17 PM 37.6833 -122.3000 38° Northeast 231 266 3,600 3,000 Climbing Northern Cal TRACON
Fri 05:38:17 PM 37.7333 -122.2333 47° Northeast 261 300 6,900 3,600 Climbing Northern Cal TRACON
Fri 05:39:00 PM 37.6554 -122.2286 72° East  Level FlightAware Approximate
Fri 05:39:17 PM 37.7667 -122.1500 63° Northeast 289 333 10,800  Level Northern Cal TRACON
Fri 05:40:00 PM 37.7122 -122.0739 70° East  Level FlightAware Approximate
Fri 05:40:15 PM 37.7911 -122.0492 73° East 307 353 12,600  Level Oakland Center
Fri 05:41:00 PM 37.7620 -121.9140 67° East  Level FlightAware Approximate
Fri 05:41:17 PM 37.8242 -121.9283 71° East 357 411 15,100  Level Oakland Center
Fri 05:42:18 PM 37.8597 -121.7978 71° East 389 448 17,400 2,098 Climbing Oakland Center
Fri 05:43:20 PM 37.8992 -121.6539 71° East 428 493 19,400 2,146 Climbing Oakland Center
Fri 05:44:21 PM 37.9458 -121.4836 71° East 452 520 21,800 2,164 Climbing Oakland Center
Fri 05:45:22 PM 37.9878 -121.3253 71° East 472 543 23,800 1,854 Climbing Oakland Center
Fri 05:46:24 PM 38.0314 -121.1642 71° East 485 558 25,600 1,610 Climbing Oakland Center
Fri 05:47:25 PM 38.0744 -120.9986 72° East 496 571 27,100 1,610 Climbing Oakland Center
Fri 05:48:27 PM 38.0994 -120.8217 80° East 511 588 28,900 1,805 Climbing Oakland Center
Fri 05:49:28 PM 38.1278 -120.6069 80° East 517 595 30,800 1,805 Climbing Oakland Center
Fri 05:50:30 PM 38.1514 -120.4269 80° East 518 596 32,600 1,561 Climbing Oakland Center
Fri 05:51:31 PM 38.1753 -120.2514 80° East 508 585 34,000 683 Climbing Oakland Center
Fri 05:52:33 PM 38.1989 -120.0761 80° East 503 579 34,000  Level Oakland Center
Fri 05:53:34 PM 38.2203 -119.9000 81° East 507 583 34,000 195 Level Oakland Center
Fri 05:54:36 PM 38.2436 -119.7242 80° East 506 582 34,400 488 Climbing Oakland Center
Fri 05:55:37 PM 38.2656 -119.5483 81° East 504 580 35,000 293 Climbing Oakland Center
Fri 05:56:39 PM 38.2881 -119.3514 82° East 504 580 35,000  Level Oakland Center
Fri 05:57:40 PM 38.3100 -119.1778 81° East 501 577 35,000  Level Oakland Center
Fri 05:58:41 PM 38.3317 -119.0017 81° East 504 580 35,000  Level Oakland Center
Fri 05:59:43 PM 38.3525 -118.8258 81° East 505 581 35,000 537 Level Oakland Center
Fri 06:00:44 PM 38.3728 -118.6439 82° East 519 597 36,100 976 Climbing Oakland Center
Fri 06:01:46 PM 38.3969 -118.4267 82° East 519 597 37,000 439 Climbing Oakland Center
Fri 06:02:47 PM 38.4183 -118.2453 81° East 520 598 37,000  Level Oakland Center
Fri 06:03:49 PM 38.4397 -118.0514 82° East 523 602 37,000  Level Oakland Center
Fri 06:04:50 PM 38.4594 -117.8700 82° East 518 596 37,000  Level Oakland Center
Fri 06:05:52 PM 38.4797 -117.6867 82° East 518 596 37,000  Level Oakland Center
Fri 06:06:53 PM 38.4989 -117.5039 82° East 517 595 37,000  Level Oakland Center
Fri 06:07:54 PM 38.5178 -117.3208 82° East 515 593 37,000  Level Oakland Center
Fri 06:08:15 PM 38.5211 -117.2456 87° East 515 593 37,000  Level Salt Lake Center
Fri 06:09:17 PM 38.5161 -117.0558 92° East 527 606 37,000  Level Salt Lake Center
Fri 06:09:57 PM 38.5133 -116.9433 92° East 527 606 37,000  Level Oakland Center
Fri 06:10:58 PM 38.5094 -116.7550 91° East 527 606 37,000  Level Oakland Center
Fri 06:12:00 PM 38.5036 -116.5656 92° East 530 610 37,000  Level Oakland Center
Fri 06:12:22 PM 38.5025 -116.4903 91° East 530 610 37,000  Level Salt Lake Center
Fri 06:13:23 PM 38.4967 -116.3006 92° East 532 612 37,000  Level Salt Lake Center
Fri 06:14:02 PM 38.4922 -116.1875 93° East 533 613 37,000  Level Oakland Center
Fri 06:14:25 PM 38.4900 -116.1128 92° East 530 610 37,000  Level Salt Lake Center
Fri 06:15:27 PM 38.4856 -115.9236 92° East 533 613 37,000  Level Salt Lake Center
Fri 06:16:28 PM 38.4794 -115.7342 92° East 534 615 37,000  Level Salt Lake Center
Fri 06:17:30 PM 38.4736 -115.5433 92° East 537 618 37,000  Level Salt Lake Center
Fri 06:18:32 PM 38.4653 -115.3186 93° East 539 620 37,000  Level Salt Lake Center
Fri 06:19:34 PM 38.4594 -115.1283 92° East 539 620 37,000  Level Salt Lake Center
Fri 06:20:35 PM 38.4517 -114.9392 93° East 537 618 37,000  Level Salt Lake Center
Fri 06:21:37 PM 38.4442 -114.7489 93° East 537 618 37,000  Level Salt Lake Center
Fri 06:22:39 PM 38.4369 -114.5603 93° East 534 615 37,000  Level Salt Lake Center
Fri 06:23:40 PM 38.4283 -114.3711 93° East 535 616 37,000  Level Salt Lake Center
Fri 06:24:42 PM 38.4200 -114.1828 93° East 532 612 37,000  Level Salt Lake Center
Fri 06:25:44 PM 38.4094 -113.9569 93° East 533 613 37,000  Level Salt Lake Center
Fri 06:26:45 PM 38.4008 -113.7689 93° East 531 611 37,000  Level Salt Lake Center
Fri 06:27:47 PM 38.3914 -113.5833 94° East 527 606 37,000  Level Salt Lake Center
Fri 06:28:49 PM 38.3808 -113.3961 94° East 527 606 37,000  Level Salt Lake Center
Fri 06:29:50 PM 38.3717 -113.2069 93° East 531 611 37,000  Level Salt Lake Center
Fri 06:30:52 PM 38.3644 -113.0189 93° East 532 612 37,000  Level Salt Lake Center
Fri 06:31:54 PM 38.3939 -112.8383 78° East 521 600 37,000  Level Salt Lake Center
Fri 06:32:55 PM 38.4267 -112.6603 77° East 516 594 37,000  Level Salt Lake Center
Fri 06:33:57 PM 38.4656 -112.4472 77° East 514 592 37,000  Level Salt Lake Center
Fri 06:34:58 PM 38.4967 -112.2694 77° East 513 590 37,000  Level Salt Lake Center
Fri 06:36:00 PM 38.5286 -112.0917 77° East 514 592 37,000  Level Salt Lake Center
Fri 06:37:02 PM 38.5606 -111.9142 77° East 513 590 37,000  Level Salt Lake Center
Fri 06:38:03 PM 38.5908 -111.7361 78° East 513 590 37,000  Level Salt Lake Center
Fri 06:39:05 PM 38.6219 -111.5589 77° East 512 589 37,000  Level Salt Lake Center
Fri 06:40:07 PM 38.6517 -111.3808 78° East 512 589 37,000  Level Salt Lake Center
Fri 06:41:08 PM 38.6828 -111.2042 77° East 510 587 37,000  Level Salt Lake Center
Fri 06:42:10 PM 38.7119 -111.0264 78° East 511 588 37,000  Level Salt Lake Center
Fri 06:43:11 PM 38.7456 -110.8239 78° East 508 585 37,000  Level Salt Lake Center
Fri 06:44:13 PM 38.7725 -110.6539 78° East 508 585 37,000  Level Salt Lake Center
Fri 06:45:15 PM 38.8056 -110.4567 78° East 508 585 37,000  Level Salt Lake Center
Fri 06:46:16 PM 38.8297 -110.2842 80° East 510 587 37,000  Level Denver Center
Fri 06:47:18 PM 38.8614 -110.0897 78° East 500 575 37,000  Level Denver Center
Fri 06:48:20 PM 38.8900 -109.9258 77° East 498 573 37,000  Level Salt Lake Center
Fri 06:49:21 PM 38.9197 -109.7311 79° East 499 574 37,000  Level Salt Lake Center
Fri 06:50:24 PM 38.9433 -109.5603 80° East 501 577 37,000  Level Denver Center
Fri 06:51:26 PM 38.9719 -109.3644 79° East 496 571 37,000  Level Denver Center
Fri 06:52:28 PM 38.9972 -109.1978 79° East 497 572 37,000  Level Denver Center
Fri 06:53:30 PM 39.0264 -109.0072 79° East 490 564 37,000  Level Denver Center
Fri 06:54:32 PM 39.0514 -108.8436 79° East 490 564 37,000  Level Denver Center
Fri 06:55:34 PM 39.0875 -108.6569 76° East 485 558 37,000  Level Denver Center
Fri 06:56:35 PM 39.1206 -108.4978 75° East 484 557 37,000  Level Denver Center
Fri 06:57:37 PM 39.1589 -108.3111 75° East 485 558 37,000  Level Denver Center
Fri 06:58:39 PM 39.1922 -108.1497 75° East 489 563 37,000  Level Denver Center
Fri 06:59:41 PM 39.2308 -107.9631 75° East 486 559 37,000  Level Denver Center
Fri 07:00:43 PM 39.2633 -107.7986 76° East 495 570 37,000  Level Denver Center
Fri 07:01:45 PM 39.3000 -107.6078 76° East 493 567 37,000  Level Denver Center
Fri 07:02:47 PM 39.3333 -107.4444 75° East 491 565 37,000  Level Denver Center
Fri 07:03:49 PM 39.3658 -107.2794 76° East 494 568 37,000  Level Denver Center
Fri 07:04:51 PM 39.4017 -107.0881 76° East 492 566 37,000  Level Denver Center
Fri 07:05:53 PM 39.4325 -106.9233 76° East 492 566 37,000  Level Denver Center
Fri 07:06:55 PM 39.4592 -106.7256 80° East 499 574 37,000  Level Denver Center
Fri 07:07:57 PM 39.4794 -106.5561 81° East 499 574 37,000  Level Denver Center
Fri 07:09:00 PM 39.5031 -106.3594 81° East 501 577 37,000  Level Denver Center
Fri 07:10:01 PM 39.5236 -106.1811 81° East 502 578 37,000  Level Denver Center
Fri 07:11:03 PM 39.5428 -106.0028 82° East 503 579 37,000  Level Denver Center
Fri 07:12:06 PM 39.5642 -105.8228 81° East 504 580 37,000  Level Denver Center
Fri 07:13:08 PM 39.5881 -105.6119 82° East 495 570 37,000  Level Denver Center
Fri 07:14:10 PM 39.6047 -105.4361 83° East 483 556 37,000  Level Denver Center
Fri 07:15:12 PM 39.6244 -105.2561 82° East 495 570 37,000  Level Denver Center
Fri 07:16:14 PM 39.6431 -105.0747 82° East 497 572 37,000  Level Denver Center
Fri 07:17:16 PM 39.6614 -104.8936 82° East 502 578 37,000  Level Denver Center
Fri 07:18:18 PM 39.6811 -104.7125 82° East 489 563 37,000  Level Denver Center
Fri 07:19:19 PM 39.6819 -104.5208 90° East 500 575 37,000  Level Denver Center
Fri 07:20:21 PM 39.6644 -104.3344 97° East 505 581 37,000  Level Denver Center
Fri 07:21:23 PM 39.6467 -104.1489 97° East 505 581 37,000  Level Denver Center
Fri 07:22:25 PM 39.6278 -103.9614 97° East 519 597 37,000  Level Denver Center
Fri 07:23:27 PM 39.6103 -103.7806 97° East 503 579 37,000  Level Denver Center
Fri 07:24:29 PM 39.5906 -103.5703 97° East 502 578 37,000  Level Denver Center
Fri 07:25:31 PM 39.5725 -103.3894 97° East 503 579 37,000  Level Denver Center
Fri 07:26:33 PM 39.5539 -103.2097 98° East 500 575 37,000  Level Denver Center
Fri 07:27:35 PM 39.5347 -103.0281 98° East 501 577 37,000  Level Denver Center
Fri 07:28:37 PM 39.5161 -102.8489 98° East 497 572 37,000  Level Denver Center
Fri 07:29:39 PM 39.4961 -102.6689 98° East 501 577 37,000  Level Denver Center
Fri 07:30:41 PM 39.4769 -102.4897 98° East 499 574 37,000  Level Denver Center
Fri 07:31:43 PM 39.4575 -102.3111 98° East 498 573 37,000  Level Denver Center
Fri 07:32:45 PM 39.4364 -102.1131 98° East 500 575 37,000  Level Denver Center
Fri 07:33:47 PM 39.4164 -101.9436 99° East 501 577 37,000  Level Denver Center
Fri 07:34:49 PM 39.3939 -101.7461 98° East 500 575 37,000  Level Denver Center
Fri 07:35:51 PM 39.3758 -101.5778 98° East 496 571 37,000  Level Denver Center
Fri 07:36:53 PM 39.3569 -101.3794 97° East 498 573 37,000  Level Denver Center
Fri 07:37:55 PM 39.3411 -101.2100 97° East 498 573 37,000  Level Denver Center
Fri 07:38:57 PM 39.3197 -101.0100 98° East 503 579 37,000  Level Denver Center
Fri 07:39:59 PM 39.3019 -100.8381 98° East 505 581 37,000  Level Denver Center
Fri 07:41:01 PM 39.2819 -100.6392 97° East 504 580 37,000  Level Denver Center
Fri 07:42:03 PM 39.2633 -100.4653 98° East 509 586 37,000  Level Denver Center
Fri 07:43:05 PM 39.2422 -100.2644 98° East 508 585 37,000  Level Denver Center
Fri 07:44:07 PM 39.2233 -100.0914 98° East 510 587 37,000  Level Denver Center
Fri 07:45:09 PM 39.2014 -99.9000 98° East 515 593 37,000  Level Denver Center
Fri 07:46:11 PM 39.1794 -99.6969 98° East 512 589 37,000  Level Denver Center
Fri 07:47:13 PM 39.1600 -99.5247 98° East 509 586 37,000  Level Denver Center
Fri 07:48:15 PM 39.1367 -99.3219 98° East 510 587 37,000  Level Denver Center
Fri 07:49:17 PM 39.1161 -99.1481 99° East 512 589 37,000  Level Denver Center
Fri 07:50:19 PM 39.1114 -98.9589 92° East 506 582 37,000  Level Denver Center
Fri 07:51:21 PM 39.1058 -98.7786 92° East 506 582 37,000  Level Denver Center
Fri 07:51:47 PM 39.1042 -98.7189 92° East 506 582 37,000  Level Kansas City Center
Fri 07:52:50 PM 39.0981 -98.5369 92° East 507 583 37,000  Level Kansas City Center
Fri 07:53:51 PM 39.0917 -98.3192 92° East 507 583 37,000  Level Kansas City Center
Fri 07:54:55 PM 39.0856 -98.1364 92° East 510 587 37,000  Level Kansas City Center
Fri 07:55:56 PM 39.0792 -97.9550 93° East 508 585 37,000  Level Kansas City Center
Fri 07:56:56 PM 39.0733 -97.7553 92° East 511 588 37,000  Level Kansas City Center
Fri 07:57:59 PM 39.0661 -97.5794 93° East 515 593 37,000  Level Kansas City Center
Fri 07:59:00 PM 39.0578 -97.3733 93° East 519 597 37,000  Level Kansas City Center
Fri 08:00:01 PM 39.0506 -97.1986 93° East 512 589 37,000  Level Kansas City Center
Fri 08:01:05 PM 39.0433 -97.0264 93° East 507 583 37,000  Level Kansas City Center
Fri 08:02:06 PM 39.0336 -96.8231 93° East 510 587 37,000  Level Kansas City Center
Fri 08:03:06 PM 39.0258 -96.6500 93° East 508 585 37,000  Level Kansas City Center
Fri 08:04:09 PM 39.0164 -96.4483 93° East 507 583 37,000  Level Kansas City Center
Fri 08:05:12 PM 39.0072 -96.2758 94° East 507 583 37,000  Level Kansas City Center
Fri 08:06:11 PM 38.9972 -96.0728 94° East 510 587 37,000  Level Kansas City Center
Fri 08:07:15 PM 38.9867 -95.8992 94° East 511 588 37,000  Level Kansas City Center
Fri 08:08:15 PM 38.9800 -95.7250 93° East 515 593 37,000  Level Kansas City Center
Fri 08:09:17 PM 38.9689 -95.5219 94° East 513 590 37,000  Level Kansas City Center
Fri 08:10:19 PM 38.9589 -95.3469 94° East 519 597 37,000  Level Kansas City Center
Fri 08:11:20 PM 38.9456 -95.1403 95° East 526 605 37,000  Level Kansas City Center
Fri 08:12:24 PM 38.9353 -94.9611 94° East 530 610 37,000  Level Kansas City Center
Fri 08:13:24 PM 38.9211 -94.7542 95° East 526 605 37,000  Level Kansas City Center
Fri 08:14:25 PM 38.9097 -94.5772 95° East 522 601 37,000  Level Kansas City Center
Fri 08:15:29 PM 38.8967 -94.3711 95° East 520 598 37,000  Level Kansas City Center
Fri 08:16:29 PM 38.8844 -94.1944 95° East 520 598 37,000 -50 Level Kansas City Center
Fri 08:17:30 PM 38.8703 -93.9897 95° East 516 594 36,900 -585 Descending Kansas City Center
Fri 08:18:32 PM 38.8575 -93.8158 95° East 513 590 35,800 -1,008 Descending Kansas City Center
Fri 08:19:35 PM 38.8447 -93.6269 95° East 514 592 34,800 -919 Descending Kansas City Center
Fri 08:20:36 PM 38.8297 -93.4433 96° East 514 592 33,900 -934 Descending Kansas City Center
Fri 08:21:37 PM 38.8172 -93.2544 95° East 521 600 32,900 -968 Descending Kansas City Center
Fri 08:22:40 PM 38.8028 -93.0700 96° East 518 596 31,900 -912 Descending Kansas City Center
Fri 08:23:42 PM 38.7883 -92.8850 96° East 519 597 31,000 -439 Descending Kansas City Center
Fri 08:24:43 PM 38.7697 -92.6622 96° East 519 597 31,000  Level Kansas City Center
Fri 08:25:44 PM 38.7547 -92.4772 96° East 519 597 31,000  Level Kansas City Center
Fri 08:26:48 PM 38.7389 -92.2853 96° East 528 608 31,000 -293 Level Kansas City Center
Fri 08:27:47 PM 38.7231 -92.1000 96° East 523 602 30,400 -2,066 Descending Kansas City Center
Fri 08:28:50 PM 38.7067 -91.9147 96° East 521 600 26,800 -3,242 Descending Kansas City Center
Fri 08:29:51 PM 38.6900 -91.7267 96° East 525 604 23,700 -3,176 Descending Kansas City Center
Fri 08:30:32 PM 38.6956 -91.5375 88° East 500 575 21,400 -3,200 Descending FAA TRACON SMA TRACON (SMA)
Fri 08:30:51 PM 38.6950 -91.4833 91° East 496 571 20,500 -2,769 Descending FAA TRACON SMA TRACON (SMA)
Fri 08:31:11 PM 38.6958 -91.4297 89° East 491 565 19,600 -2,927 Descending FAA TRACON SMA TRACON (SMA)
Fri 08:31:32 PM 38.6939 -91.3642 92° East 480 552 18,500 -2,780 Descending FAA TRACON SMA TRACON (SMA)
Fri 08:31:52 PM 38.6950 -91.3139 88° East 465 535 17,700 -2,615 Descending FAA TRACON SMA TRACON (SMA)
Fri 08:32:11 PM 38.6942 -91.2650 91° East 450 518 16,800 -3,000 Descending FAA TRACON SMA TRACON (SMA)
Fri 08:32:32 PM 38.6933 -91.2064 91° East 432 497 15,700 -2,488 Descending FAA TRACON SMA TRACON (SMA)
Fri 08:32:52 PM 38.6919 -91.1603 92° East 421 484 15,100 -1,077 Descending FAA TRACON SMA TRACON (SMA)
Fri 08:33:11 PM 38.6928 -91.1153 89° East 413 475 15,000 -308 Descending FAA TRACON SMA TRACON (SMA)
Fri 08:33:31 PM 38.6914 -91.0581 92° East 417 480 14,900 -585 Descending FAA TRACON SMA TRACON (SMA)
Fri 08:33:52 PM 38.6925 -91.0119 88° East 421 484 14,600 -1,350 Descending FAA TRACON SMA TRACON (SMA)
Fri 08:34:11 PM 38.6906 -90.9656 93° East 423 487 14,000 -2,615 Descending FAA TRACON SMA TRACON (SMA)
Fri 08:34:31 PM 38.6922 -90.9081 88° East 423 487 12,900 -2,780 Descending FAA TRACON SMA TRACON (SMA)
Fri 08:34:52 PM 38.6931 -90.8625 89° East 417 480 12,100 -2,195 Descending FAA TRACON SMA TRACON (SMA)
Fri 08:35:12 PM 38.6956 -90.8183 86° East 409 471 11,400 -2,154 Descending FAA TRACON SMA TRACON (SMA)
Fri 08:35:31 PM 38.6969 -90.7636 88° East 400 460 10,700 -1,650 Descending FAA TRACON SMA TRACON (SMA)
Fri 08:35:52 PM 38.6994 -90.7222 86° East 385 443 10,300 -1,171 Descending FAA TRACON SMA TRACON (SMA)
Fri 08:36:12 PM 38.7011 -90.6825 87° East 370 426 9,900 -1,077 Descending FAA TRACON SMA TRACON (SMA)
Fri 08:36:31 PM 38.7033 -90.6356 87° East 345 397 9,600 -1,077 Descending FAA TRACON SMA TRACON (SMA)
Fri 08:36:51 PM 38.7047 -90.6003 87° East 327 376 9,200 -1,317 Descending FAA TRACON SMA TRACON (SMA)
Fri 08:37:12 PM 38.7056 -90.5656 88° East 318 366 8,700 -1,610 Descending FAA TRACON SMA TRACON (SMA)
Fri 08:37:32 PM 38.7069 -90.5228 88° East 313 360 8,100 -1,846 Descending FAA TRACON SMA TRACON (SMA)
Fri 08:37:51 PM 38.7050 -90.4894 94° East 309 356 7,500 -1,500 Descending FAA TRACON SMA TRACON (SMA)
Fri 08:38:12 PM 38.6967 -90.4583 109° East 306 352 7,100 -1,610 Descending FAA TRACON SMA TRACON (SMA)
Fri 08:38:32 PM 38.6786 -90.4247 125° Southeast 298 343 6,400 -2,000 Descending FAA TRACON SMA TRACON (SMA)
Fri 08:38:51 PM 38.6633 -90.3994 128° Southeast 291 335 5,800 -1,800 Descending FAA TRACON SMA TRACON (SMA)
Fri 08:39:12 PM 38.6447 -90.3683 127° Southeast 288 331 5,200 -1,317 Descending FAA TRACON SMA TRACON (SMA)
Fri 08:39:32 PM 38.6303 -90.3439 127° Southeast 281 323 4,900 -923 Descending FAA TRACON SMA TRACON (SMA)
Fri 08:39:51 PM 38.6233 -90.3161 108° East 277 319 4,600 -769 Descending FAA TRACON SMA TRACON (SMA)
Fri 08:40:11 PM 38.6231 -90.2886 91° East 260 299 4,400 -1,610 Descending FAA TRACON SMA TRACON (SMA)
Fri 08:40:32 PM 38.6228 -90.2553 91° East 242 278 3,500 -2,250 Descending FAA TRACON SMA TRACON (SMA)
Fri 08:40:51 PM 38.6253 -90.2308 83° East 235 270 2,900 -1,538 Descending FAA TRACON SMA TRACON (SMA)
Fri 08:41:11 PM 38.6400 -90.2111 46° Northeast 212 244 2,500 -585 Descending FAA TRACON SMA TRACON (SMA)
Fri 08:41:32 PM 38.6531 -90.2000 34° Northeast 188 216 2,500 -146 Level FAA TRACON SMA TRACON (SMA)
Fri 08:41:52 PM 38.6667 -90.1908 28° Northeast 177 204 2,400 -154 Descending FAA TRACON SMA TRACON (SMA)
Fri 08:42:11 PM 38.6833 -90.1875 North 163 188 2,400 -300 Level FAA TRACON SMA TRACON (SMA)
Fri 08:42:32 PM 38.6906 -90.1967 315° West 150 173 2,200 -585 Descending FAA TRACON SMA TRACON (SMA)
Fri 08:42:52 PM 38.6958 -90.2078 301° West 124 143 2,000 -769 Descending FAA TRACON SMA TRACON (SMA)
Fri 08:43:11 PM 38.7028 -90.2217 303° West 119 137 1,700 -769 Descending FAA TRACON SMA TRACON (SMA)
Fri 08:43:31 PM 38.7086 -90.2333 303° West 125 144 1,500 -585 Descending FAA TRACON SMA TRACON (SMA)
Fri 08:43:52 PM 38.7139 -90.2442 302° West 120 138 1,300 -571 Descending FAA TRACON SMA TRACON (SMA)

Login

Don't have an account? Register now (free) for customized features, flight alerts, and more!